Time;durP1;ratioP1;P1;durP2;ratioP2;P2;SDS_P1;SDS_P2;PMS_P1;PMS_P2;Temp;Humidity;BMP_temperature;BMP_pressure;BME280_temperature;BME280_humidity;BME280_pressure;Samples;Min_cycle;Max_cycle;Signal;HPM_P1;HPM_P2
2023/04/17 00:01:06;;;;;;;30.47;17.10;;;;;;;;;;5079421;28;20208;-79
2023/04/17 00:03:32;;;;;;;31.60;18.87;;;;;;;;;;5082726;28;20190;-79
2023/04/17 00:05:57;;;;;;;37.17;16.87;;;;;;;;;;5072927;28;20180;-79
2023/04/17 00:08:22;;;;;;;57.67;20.47;;;;;;;;;;5067987;28;20175;-79
2023/04/17 00:10:48;;;;;;;24.20;15.53;;;;;;;;;;5076309;28;20261;-79
2023/04/17 00:13:13;;;;;;;29.93;16.43;;;;;;;;;;5076460;28;20228;-79
2023/04/17 00:15:39;;;;;;;27.17;16.53;;;;;;;;;;5080571;28;20205;-79
2023/04/17 00:18:04;;;;;;;31.13;18.47;;;;;;;;;;5092873;28;20178;-79
2023/04/17 00:20:29;;;;;;;26.53;17.43;;;;;;;;;;5086101;28;20177;-79
2023/04/17 00:22:55;;;;;;;24.93;17.57;;;;;;;;;;5091913;27;20171;-79
2023/04/17 00:25:20;;;;;;;27.13;16.10;;;;;;;;;;5084672;28;20186;-79
2023/04/17 00:27:45;;;;;;;28.63;17.33;;;;;;;;;;5089955;27;20249;-79
2023/04/17 00:30:11;;;;;;;21.03;15.13;;;;;;;;;;5113135;27;20199;-79
2023/04/17 00:32:36;;;;;;;22.27;15.80;;;;;;;;;;5087767;28;20187;-79
2023/04/17 00:35:02;;;;;;;23.30;16.03;;;;;;;;;;5103614;27;20167;-79
2023/04/17 00:37:27;;;;;;;26.77;15.77;;;;;;;;;;5088110;28;20196;-79
2023/04/17 00:39:52;;;;;;;25.60;15.67;;;;;;;;;;5094007;28;20208;-79
2023/04/17 00:42:18;;;;;;;25.60;15.93;;;;;;;;;;5089907;28;20269;-79
2023/04/17 00:44:43;;;;;;;22.57;15.13;;;;;;;;;;5092846;27;20519;-78
2023/04/17 00:47:08;;;;;;;29.60;17.73;;;;;;;;;;5084204;28;20176;-78
2023/04/17 00:49:33;;;;;;;116.70;22.10;;;;;;;;;;5092714;28;20180;-79
2023/04/17 00:52:00;;;;;;;32.17;16.50;;;;;;;;;;5110054;28;20203;-79
2023/04/17 00:54:25;;;;;;;25.13;16.90;;;;;;;;;;5106188;27;20199;-79
2023/04/17 00:56:53;;;;;;;24.27;16.40;;;;;;;;;;5090994;27;20199;-79
2023/04/17 00:59:18;;;;;;;24.43;15.43;;;;;;;;;;5091229;28;20176;-79
2023/04/17 01:01:43;;;;;;;30.17;16.67;;;;;;;;;;5091244;28;20206;-79
2023/04/17 01:04:09;;;;;;;31.00;17.60;;;;;;;;;;5089714;28;20170;-78
2023/04/17 01:06:35;;;;;;;34.07;16.53;;;;;;;;;;5107502;27;20196;-78
2023/04/17 01:09:00;;;;;;;25.70;16.00;;;;;;;;;;5091958;28;20248;-78
2023/04/17 01:11:25;;;;;;;48.00;16.83;;;;;;;;;;5086292;28;20221;-78
2023/04/17 01:13:51;;;;;;;102.53;21.97;;;;;;;;;;5062991;28;20211;-79
2023/04/17 01:16:16;;;;;;;174.63;24.83;;;;;;;;;;5072698;28;20357;-79
2023/04/17 01:18:41;;;;;;;104.73;20.43;;;;;;;;;;5079013;28;20176;-79
2023/04/17 01:21:07;;;;;;;114.50;21.23;;;;;;;;;;5078979;28;20173;-79
2023/04/17 01:23:43;;;;;;;39.00;18.30;;;;;;;;;;5083269;28;20218;-79
2023/04/17 01:26:08;;;;;;;27.30;16.10;;;;;;;;;;5072795;28;20219;-79
2023/04/17 01:28:33;;;;;;;50.47;16.90;;;;;;;;;;5090532;28;20185;-79
2023/04/17 01:30:58;;;;;;;42.30;16.80;;;;;;;;;;5068005;28;20173;-79
2023/04/17 01:33:24;;;;;;;87.87;18.57;;;;;;;;;;5076036;28;20192;-79
2023/04/17 01:35:49;;;;;;;41.13;17.00;;;;;;;;;;5069476;28;20216;-79
2023/04/17 01:38:14;;;;;;;58.07;18.17;;;;;;;;;;5068860;28;20193;-79
2023/04/17 01:40:40;;;;;;;32.57;17.77;;;;;;;;;;5068428;28;20173;-79
2023/04/17 01:43:05;;;;;;;23.80;17.53;;;;;;;;;;5087868;28;20163;-78
2023/04/17 01:45:30;;;;;;;35.80;16.53;;;;;;;;;;5068957;28;20177;-79
2023/04/17 01:47:55;;;;;;;83.00;18.93;;;;;;;;;;5077277;28;20180;-79
2023/04/17 01:50:20;;;;;;;27.80;16.43;;;;;;;;;;5072446;28;20256;-79
2023/04/17 01:52:46;;;;;;;56.73;17.90;;;;;;;;;;5080476;28;20259;-79
2023/04/17 01:55:11;;;;;;;22.20;16.17;;;;;;;;;;5067847;28;20198;-79
2023/04/17 01:57:36;;;;;;;54.47;18.03;;;;;;;;;;5061105;28;20196;-79
2023/04/17 02:00:06;;;;;;;87.23;19.73;;;;;;;;;;5070600;28;20184;-79
2023/04/17 02:02:31;;;;;;;43.77;17.30;;;;;;;;;;5074930;28;20210;-79
2023/04/17 02:04:56;;;;;;;55.67;18.03;;;;;;;;;;5077758;28;20180;-79
2023/04/17 02:07:21;;;;;;;132.23;23.50;;;;;;;;;;5072758;28;20175;-79
2023/04/17 02:09:46;;;;;;;33.03;17.37;;;;;;;;;;5090607;28;20173;-79
2023/04/17 02:12:12;;;;;;;68.60;19.37;;;;;;;;;;5069768;28;20217;-79
2023/04/17 02:14:37;;;;;;;102.43;20.20;;;;;;;;;;5069726;28;20178;-79
2023/04/17 02:17:02;;;;;;;223.33;25.57;;;;;;;;;;5070003;28;20221;-79
2023/04/17 02:19:27;;;;;;;29.50;16.07;;;;;;;;;;5069347;28;20178;-79
2023/04/17 02:21:52;;;;;;;23.00;15.80;;;;;;;;;;5072519;28;20169;-79
2023/04/17 02:24:18;;;;;;;67.80;20.13;;;;;;;;;;5074644;28;20187;-79
2023/04/17 02:26:43;;;;;;;79.63;17.97;;;;;;;;;;5069547;28;20185;-79
2023/04/17 02:29:08;;;;;;;76.73;18.47;;;;;;;;;;5063187;28;20260;-79
2023/04/17 02:31:33;;;;;;;54.23;17.93;;;;;;;;;;5068177;28;20199;-79
2023/04/17 02:33:58;;;;;;;30.40;16.03;;;;;;;;;;5072509;28;20249;-79
2023/04/17 02:36:25;;;;;;;39.10;16.20;;;;;;;;;;5071014;28;20231;-79
2023/04/17 02:38:50;;;;;;;25.03;16.43;;;;;;;;;;5068088;28;20202;-79
2023/04/17 02:41:15;;;;;;;27.50;15.77;;;;;;;;;;5076858;28;20209;-79
2023/04/17 02:43:41;;;;;;;54.40;17.70;;;;;;;;;;5095275;28;20164;-79
2023/04/17 02:46:06;;;;;;;33.80;15.27;;;;;;;;;;5069644;28;20176;-79
2023/04/17 02:48:31;;;;;;;53.90;16.17;;;;;;;;;;5086955;28;20275;-79
2023/04/17 02:50:56;;;;;;;35.73;16.10;;;;;;;;;;5070835;28;20181;-79
2023/04/17 02:53:21;;;;;;;71.50;18.50;;;;;;;;;;5090421;28;20184;-79
2023/04/17 02:55:47;;;;;;;30.67;15.50;;;;;;;;;;5072425;28;20202;-78
2023/04/17 02:58:12;;;;;;;68.00;19.67;;;;;;;;;;5072193;28;20176;-79
2023/04/17 03:00:38;;;;;;;70.37;17.70;;;;;;;;;;5074355;28;20173;-79
2023/04/17 03:03:03;;;;;;;24.57;14.90;;;;;;;;;;5068879;28;20189;-78
2023/04/17 03:05:29;;;;;;;23.97;14.57;;;;;;;;;;5075157;28;20177;-78
2023/04/17 03:07:55;;;;;;;41.77;15.13;;;;;;;;;;5075093;28;20172;-78
2023/04/17 03:10:20;;;;;;;46.23;14.40;;;;;;;;;;5098221;28;20233;-78
2023/04/17 03:12:45;;;;;;;35.43;14.07;;;;;;;;;;5078185;28;20225;-79
2023/04/17 03:15:10;;;;;;;37.97;14.80;;;;;;;;;;5067544;28;20216;-79
2023/04/17 03:17:36;;;;;;;30.27;14.67;;;;;;;;;;5065049;28;20214;-78
2023/04/17 03:20:02;;;;;;;25.60;13.53;;;;;;;;;;5070838;28;20202;-78
2023/04/17 03:22:28;;;;;;;22.27;14.23;;;;;;;;;;5079793;28;20223;-78
2023/04/17 03:24:53;;;;;;;143.57;22.27;;;;;;;;;;5073345;28;20173;-78
2023/04/17 03:27:23;;;;;;;27.10;18.60;;;;;;;;;;5076385;28;20272;-78
2023/04/17 03:29:53;;;;;;;111.73;19.17;;;;;;;;;;5071075;28;20184;-79
2023/04/17 03:32:18;;;;;;;23.37;14.00;;;;;;;;;;5074427;28;20177;-78
2023/04/17 03:34:43;;;;;;;30.37;14.77;;;;;;;;;;5073308;28;20196;-79
2023/04/17 03:37:09;;;;;;;46.30;15.30;;;;;;;;;;5078417;28;20201;-79
2023/04/17 03:39:34;;;;;;;169.53;21.40;;;;;;;;;;5072313;28;20229;-79
2023/04/17 03:41:59;;;;;;;69.17;16.53;;;;;;;;;;5092942;28;20202;-79
2023/04/17 03:44:25;;;;;;;52.93;16.03;;;;;;;;;;5075736;28;20180;-79
2023/04/17 03:46:50;;;;;;;93.20;16.83;;;;;;;;;;5085210;28;20296;-79
2023/04/17 03:49:15;;;;;;;35.87;15.73;;;;;;;;;;5079738;28;20273;-79
2023/04/17 03:51:41;;;;;;;29.20;15.87;;;;;;;;;;5093556;28;20179;-79
2023/04/17 03:54:06;;;;;;;102.40;18.90;;;;;;;;;;5074932;28;20248;-79
2023/04/17 03:56:32;;;;;;;77.60;16.30;;;;;;;;;;5074042;28;20206;-79
2023/04/17 03:58:57;;;;;;;66.33;17.27;;;;;;;;;;5064523;28;20230;-79
2023/04/17 04:01:26;;;;;;;125.47;19.60;;;;;;;;;;5068546;28;20273;-79
2023/04/17 04:03:52;;;;;;;87.30;17.67;;;;;;;;;;5071465;28;20189;-78
2023/04/17 04:06:19;;;;;;;110.20;17.93;;;;;;;;;;5082725;28;20199;-79
2023/04/17 04:08:44;;;;;;;143.27;19.53;;;;;;;;;;5073105;28;20181;-79
2023/04/17 04:11:09;;;;;;;31.47;14.23;;;;;;;;;;5066836;28;20181;-79
2023/04/17 04:13:34;;;;;;;296.07;29.00;;;;;;;;;;5076649;28;20220;-79
2023/04/17 04:16:00;;;;;;;33.30;15.33;;;;;;;;;;5084933;27;20253;-79
2023/04/17 04:18:25;;;;;;;76.47;18.20;;;;;;;;;;5076725;28;20253;-78
2023/04/17 04:20:50;;;;;;;134.13;19.57;;;;;;;;;;5092668;28;20210;-79
2023/04/17 04:23:15;;;;;;;104.37;18.47;;;;;;;;;;5095139;28;20183;-78
2023/04/17 04:25:42;;;;;;;122.13;18.77;;;;;;;;;;5107416;28;20177;-79
2023/04/17 04:28:09;;;;;;;43.43;14.33;;;;;;;;;;5108732;27;20177;-78
2023/04/17 04:30:37;;;;;;;127.83;19.53;;;;;;;;;;5081354;28;20249;-78
2023/04/17 04:33:04;;;;;;;148.77;20.13;;;;;;;;;;5097466;28;20195;-78
2023/04/17 04:35:30;;;;;;;32.27;13.13;;;;;;;;;;5108629;27;20213;-78
2023/04/17 04:38:01;;;;;;;260.83;27.50;;;;;;;;;;5088165;28;20215;-79
2023/04/17 04:40:34;;;;;;;69.97;15.50;;;;;;;;;;5104289;27;20181;-79
2023/04/17 04:43:00;;;;;;;68.53;16.37;;;;;;;;;;5083118;28;20214;-78
2023/04/17 04:45:25;;;;;;;76.40;15.27;;;;;;;;;;5083798;28;20211;-78
2023/04/17 04:47:50;;;;;;;333.27;30.97;;;;;;;;;;5092504;28;20221;-78
2023/04/17 04:50:15;;;;;;;39.27;13.90;;;;;;;;;;5089374;28;20185;-78
2023/04/17 04:52:41;;;;;;;50.60;13.40;;;;;;;;;;5105505;27;20173;-78
2023/04/17 04:55:07;;;;;;;144.23;20.37;;;;;;;;;;5093940;27;20253;-79
2023/04/17 04:57:32;;;;;;;73.93;18.07;;;;;;;;;;5085846;28;20204;-78
2023/04/17 04:59:57;;;;;;;31.10;14.00;;;;;;;;;;5081153;28;20191;-79
2023/04/17 05:02:25;;;;;;;57.37;15.37;;;;;;;;;;5077959;28;20246;-78
2023/04/17 05:04:50;;;;;;;51.57;14.03;;;;;;;;;;5112342;27;20176;-78
2023/04/17 05:07:16;;;;;;;104.13;18.20;;;;;;;;;;5092778;28;20187;-78
2023/04/17 05:09:41;;;;;;;34.67;12.83;;;;;;;;;;5092630;27;20176;-78
2023/04/17 05:12:06;;;;;;;65.37;15.83;;;;;;;;;;5089285;28;20225;-79
2023/04/17 05:14:32;;;;;;;154.60;20.47;;;;;;;;;;5093475;28;20228;-78
2023/04/17 05:16:57;;;;;;;136.00;18.33;;;;;;;;;;5090800;28;20209;-78
2023/04/17 05:19:22;;;;;;;57.60;13.40;;;;;;;;;;5089794;28;20244;-78
2023/04/17 05:21:47;;;;;;;109.17;16.70;;;;;;;;;;5107845;27;20164;-78
2023/04/17 05:24:13;;;;;;;82.87;15.83;;;;;;;;;;5091209;28;20196;-78
2023/04/17 05:26:38;;;;;;;120.47;17.60;;;;;;;;;;5092428;28;20215;-78
2023/04/17 05:29:03;;;;;;;46.37;13.83;;;;;;;;;;5085673;28;20195;-78
2023/04/17 05:31:28;;;;;;;49.07;13.63;;;;;;;;;;5109287;27;20185;-78
2023/04/17 05:33:54;;;;;;;73.83;16.80;;;;;;;;;;5093532;27;20184;-78
2023/04/17 05:36:19;;;;;;;235.53;25.83;;;;;;;;;;5080197;28;20239;-78
2023/04/17 05:38:44;;;;;;;246.13;24.73;;;;;;;;;;5101208;28;20286;-78
2023/04/17 05:41:09;;;;;;;204.93;21.47;;;;;;;;;;5079539;28;20179;-78
2023/04/17 05:43:35;;;;;;;183.80;23.47;;;;;;;;;;5079644;28;20188;-78
2023/04/17 05:46:00;;;;;;;113.57;18.60;;;;;;;;;;5106000;27;20199;-79
2023/04/17 05:48:25;;;;;;;112.07;17.73;;;;;;;;;;5088322;28;20274;-79
2023/04/17 05:50:50;;;;;;;46.60;15.23;;;;;;;;;;5094266;28;20221;-79
2023/04/17 05:53:16;;;;;;;42.07;12.97;;;;;;;;;;5106198;28;20280;-78
2023/04/17 05:55:41;;;;;;;56.17;13.73;;;;;;;;;;5092603;27;20188;-78
2023/04/17 05:58:06;;;;;;;177.40;21.13;;;;;;;;;;5088145;28;20218;-78
2023/04/17 06:00:32;;;;;;;63.83;14.30;;;;;;;;;;5104593;28;20182;-78
2023/04/17 06:03:00;;;;;;;99.63;17.00;;;;;;;;;;5087639;28;20261;-78
2023/04/17 06:05:25;;;;;;;59.43;14.13;;;;;;;;;;5090741;28;20236;-78
2023/04/17 06:07:50;;;;;;;44.60;12.67;;;;;;;;;;5084442;28;20211;-78
2023/04/17 06:10:15;;;;;;;94.17;15.97;;;;;;;;;;5089541;28;20181;-78
2023/04/17 06:12:41;;;;;;;281.63;25.13;;;;;;;;;;5093525;28;20231;-78
2023/04/17 06:15:08;;;;;;;110.77;15.70;;;;;;;;;;5112701;28;20222;-78
2023/04/17 06:17:34;;;;;;;162.33;19.90;;;;;;;;;;5087105;28;20203;-78
2023/04/17 06:19:59;;;;;;;107.83;14.77;;;;;;;;;;5092707;28;20174;-78
2023/04/17 06:22:24;;;;;;;68.47;15.20;;;;;;;;;;5084126;28;20268;-78
2023/04/17 06:24:50;;;;;;;292.73;25.13;;;;;;;;;;5090657;28;20225;-79
2023/04/17 06:27:15;;;;;;;163.80;18.70;;;;;;;;;;5094434;28;20188;-78
2023/04/17 06:29:40;;;;;;;61.87;14.37;;;;;;;;;;5093089;28;20226;-78
2023/04/17 06:32:05;;;;;;;195.93;18.93;;;;;;;;;;5094598;28;20181;-78
2023/04/17 06:34:31;;;;;;;208.87;21.53;;;;;;;;;;5096732;28;20177;-78
2023/04/17 06:36:57;;;;;;;126.40;15.03;;;;;;;;;;5095214;28;20216;-78
2023/04/17 06:39:23;;;;;;;106.17;17.37;;;;;;;;;;5090437;28;20191;-78
2023/04/17 06:41:49;;;;;;;149.40;17.47;;;;;;;;;;5095286;28;20179;-78
2023/04/17 06:44:14;;;;;;;55.77;12.60;;;;;;;;;;5094445;28;20245;-78
2023/04/17 06:46:40;;;;;;;90.73;13.93;;;;;;;;;;5105877;27;20209;-78
2023/04/17 06:49:05;;;;;;;59.63;12.83;;;;;;;;;;5089328;28;20235;-78
2023/04/17 06:51:30;;;;;;;195.33;19.37;;;;;;;;;;5084898;28;20184;-78
2023/04/17 06:53:55;;;;;;;187.53;19.43;;;;;;;;;;5098032;27;20256;-78
2023/04/17 06:56:23;;;;;;;117.03;15.27;;;;;;;;;;5086473;28;20204;-79
2023/04/17 06:58:48;;;;;;;202.83;18.23;;;;;;;;;;5110006;28;20233;-79
2023/04/17 07:01:13;;;;;;;153.13;16.27;;;;;;;;;;5097258;28;20282;-79
2023/04/17 07:03:39;;;;;;;253.97;23.10;;;;;;;;;;5086138;28;20199;-78
2023/04/17 07:06:05;;;;;;;165.10;18.43;;;;;;;;;;5090986;28;20187;-77
2023/04/17 07:08:30;;;;;;;109.73;14.57;;;;;;;;;;5096999;28;20180;-78
2023/04/17 07:10:55;;;;;;;63.27;12.47;;;;;;;;;;5078331;28;20249;-77
2023/04/17 07:13:20;;;;;;;222.37;21.57;;;;;;;;;;5081585;28;20235;-77
2023/04/17 07:15:52;;;;;;;170.17;18.17;;;;;;;;;;5091993;28;20180;-78
2023/04/17 07:18:18;;;;;;;113.63;14.20;;;;;;;;;;5116193;27;20250;-77
2023/04/17 07:20:43;;;;;;;226.77;22.13;;;;;;;;;;5091012;28;20205;-78
2023/04/17 07:23:08;;;;;;;138.47;17.93;;;;;;;;;;5095607;27;20171;-78
2023/04/17 07:25:33;;;;;;;116.63;15.73;;;;;;;;;;5095588;28;20179;-77
2023/04/17 07:27:58;;;;;;;149.20;17.30;;;;;;;;;;5097008;27;20176;-75
2023/04/17 07:30:24;;;;;;;98.87;13.87;;;;;;;;;;5113033;28;20196;-75
2023/04/17 07:32:49;;;;;;;110.47;13.90;;;;;;;;;;5099474;27;20206;-75
2023/04/17 07:35:14;;;;;;;50.17;11.07;;;;;;;;;;5103361;28;20218;-75
2023/04/17 07:37:40;;;;;;;157.83;15.70;;;;;;;;;;5094679;28;20291;-75
2023/04/17 07:40:07;;;;;;;33.90;9.57;;;;;;;;;;5094804;28;20168;-75
2023/04/17 07:42:33;;;;;;;107.67;12.83;;;;;;;;;;5094502;28;20179;-75
2023/04/17 07:44:58;;;;;;;36.07;10.03;;;;;;;;;;5098783;27;20201;-75
2023/04/17 07:47:23;;;;;;;14.03;8.63;;;;;;;;;;5099226;27;20262;-75
2023/04/17 07:49:49;;;;;;;8.80;7.03;;;;;;;;;;5095899;28;20243;-75
2023/04/17 07:52:16;;;;;;;10.73;6.90;;;;;;;;;;5094943;27;20183;-75
2023/04/17 07:54:41;;;;;;;10.33;7.90;;;;;;;;;;5095769;27;20178;-75
2023/04/17 07:57:07;;;;;;;19.90;7.90;;;;;;;;;;5090961;28;20275;-75
2023/04/17 07:59:32;;;;;;;37.80;8.90;;;;;;;;;;5105199;27;20181;-75
2023/04/17 08:01:57;;;;;;;62.13;10.17;;;;;;;;;;5093500;28;20274;-75
2023/04/17 08:04:23;;;;;;;11.47;7.93;;;;;;;;;;5112038;27;20197;-75
2023/04/17 08:06:49;;;;;;;90.73;11.10;;;;;;;;;;5118620;27;20333;-75
2023/04/17 08:09:14;;;;;;;60.60;10.87;;;;;;;;;;5094702;27;20183;-75
2023/04/17 08:11:39;;;;;;;38.17;8.87;;;;;;;;;;5086184;27;20223;-75
2023/04/17 08:14:05;;;;;;;17.20;8.00;;;;;;;;;;5096184;28;20172;-75
2023/04/17 08:16:30;;;;;;;24.03;7.53;;;;;;;;;;5101088;27;20215;-75
2023/04/17 08:18:56;;;;;;;37.53;8.70;;;;;;;;;;5115108;27;20183;-75
2023/04/17 08:21:21;;;;;;;37.97;9.00;;;;;;;;;;5093598;28;20191;-75
2023/04/17 08:23:46;;;;;;;27.50;7.70;;;;;;;;;;5089991;28;20168;-75
2023/04/17 08:26:11;;;;;;;76.83;11.10;;;;;;;;;;5108989;27;20172;-75
2023/04/17 08:28:37;;;;;;;35.97;8.37;;;;;;;;;;5093666;28;20175;-75
2023/04/17 08:31:02;;;;;;;18.03;7.27;;;;;;;;;;5113925;27;20200;-75
2023/04/17 08:33:27;;;;;;;25.60;8.23;;;;;;;;;;5105960;27;20176;-75
2023/04/17 08:35:52;;;;;;;20.07;7.83;;;;;;;;;;5096407;28;20219;-75
2023/04/17 08:38:18;;;;;;;7.97;5.60;;;;;;;;;;5093588;27;20176;-75
2023/04/17 08:40:47;;;;;;;20.63;7.77;;;;;;;;;;5112337;27;20168;-75
2023/04/17 08:43:14;;;;;;;19.10;7.93;;;;;;;;;;5098733;28;20170;-75
2023/04/17 08:45:42;;;;;;;12.27;7.23;;;;;;;;;;5088918;28;20197;-75
2023/04/17 08:48:07;;;;;;;57.40;11.17;;;;;;;;;;5111827;27;20232;-75
2023/04/17 08:50:33;;;;;;;39.30;9.73;;;;;;;;;;5092893;28;20174;-75
2023/04/17 08:52:58;;;;;;;29.37;8.67;;;;;;;;;;5097090;28;20157;-75
2023/04/17 08:55:28;;;;;;;26.43;9.03;;;;;;;;;;5090864;27;20211;-75
2023/04/17 08:58:03;;;;;;;25.67;9.40;;;;;;;;;;5087039;28;20199;-75
2023/04/17 09:00:31;;;;;;;12.37;7.43;;;;;;;;;;5110642;28;20195;-75
2023/04/17 09:02:58;;;;;;;24.50;9.13;;;;;;;;;;5102404;28;20200;-75
2023/04/17 09:05:24;;;;;;;12.13;7.53;;;;;;;;;;5093817;28;20175;-75
2023/04/17 09:08:04;;;;;;;19.27;8.63;;;;;;;;;;5085048;28;20173;-75
2023/04/17 09:10:39;;;;;;;13.03;7.63;;;;;;;;;;5095699;28;20198;-75
2023/04/17 09:13:05;;;;;;;11.27;7.97;;;;;;;;;;5107157;27;20222;-75
2023/04/17 09:15:31;;;;;;;9.43;7.27;;;;;;;;;;5112043;27;20180;-75
2023/04/17 09:17:56;;;;;;;10.27;7.70;;;;;;;;;;5100784;27;20239;-75
2023/04/17 09:20:22;;;;;;;7.57;6.60;;;;;;;;;;5105325;27;20176;-75
2023/04/17 09:22:47;;;;;;;9.90;7.03;;;;;;;;;;5084109;28;20173;-75
2023/04/17 09:25:19;;;;;;;8.60;7.07;;;;;;;;;;5113809;27;20259;-75
2023/04/17 09:27:44;;;;;;;9.43;7.83;;;;;;;;;;5108417;28;20176;-75
2023/04/17 09:30:10;;;;;;;10.27;8.63;;;;;;;;;;5115080;27;20174;-75
2023/04/17 09:32:35;;;;;;;10.90;8.27;;;;;;;;;;5092911;28;20179;-75
2023/04/17 09:35:02;;;;;;;8.63;7.43;;;;;;;;;;5079693;28;20180;-75
2023/04/17 09:37:49;;;;;;;11.13;7.67;;;;;;;;;;5085684;28;20209;-75
2023/04/17 09:40:15;;;;;;;11.33;7.77;;;;;;;;;;5111826;27;20176;-75
2023/04/17 09:43:15;;;;;;;10.73;7.67;;;;;;;;;;5100412;28;20229;-75
2023/04/17 09:45:43;;;;;;;8.73;7.30;;;;;;;;;;5053806;28;20178;-75
2023/04/17 09:48:09;;;;;;;11.70;8.70;;;;;;;;;;5099454;28;20166;-75
2023/04/17 09:50:35;;;;;;;9.80;6.73;;;;;;;;;;5089798;28;20168;-75
2023/04/17 09:53:02;;;;;;;15.53;10.00;;;;;;;;;;5080716;28;20182;-76
2023/04/17 09:55:28;;;;;;;12.17;9.80;;;;;;;;;;5112855;27;20167;-75
2023/04/17 09:57:54;;;;;;;12.33;8.80;;;;;;;;;;5082143;28;20209;-75
2023/04/17 10:00:20;;;;;;;10.93;8.80;;;;;;;;;;5090524;28;20172;-75
2023/04/17 10:02:47;;;;;;;10.77;8.40;;;;;;;;;;5105608;28;20234;-75
2023/04/17 10:05:12;;;;;;;10.53;8.70;;;;;;;;;;5089479;28;20272;-75
2023/04/17 10:07:38;;;;;;;11.77;8.03;;;;;;;;;;5092137;28;20259;-76
2023/04/17 10:10:08;;;;;;;8.87;7.20;;;;;;;;;;5113246;27;20244;-75
2023/04/17 10:12:33;;;;;;;11.07;8.23;;;;;;;;;;5110048;28;20237;-75
2023/04/17 10:14:58;;;;;;;9.97;7.43;;;;;;;;;;5110622;28;20172;-75
2023/04/17 10:17:30;;;;;;;9.03;7.53;;;;;;;;;;5110907;28;20290;-75
2023/04/17 10:19:55;;;;;;;11.00;8.57;;;;;;;;;;5091343;28;20172;-75
2023/04/17 10:22:20;;;;;;;9.30;7.53;;;;;;;;;;5108985;28;20179;-75
2023/04/17 10:24:50;;;;;;;8.87;7.37;;;;;;;;;;5091536;28;20205;-75
2023/04/17 10:27:22;;;;;;;11.63;7.93;;;;;;;;;;5089588;28;20183;-75
2023/04/17 10:29:53;;;;;;;9.33;6.37;;;;;;;;;;5109444;28;20202;-75
2023/04/17 10:32:18;;;;;;;13.23;8.07;;;;;;;;;;5113758;27;20169;-76
2023/04/17 10:34:43;;;;;;;9.10;7.57;;;;;;;;;;5111426;28;20171;-75
2023/04/17 10:37:13;;;;;;;10.00;7.50;;;;;;;;;;5115572;28;20192;-75
2023/04/17 10:40:19;;;;;;;9.97;6.87;;;;;;;;;;5087239;28;20168;-75
2023/04/17 10:43:03;;;;;;;7.53;6.50;;;;;;;;;;4994795;28;20195;-75
2023/04/17 10:45:47;;;;;;;9.40;6.77;;;;;;;;;;5000602;28;20331;-76
2023/04/17 10:48:19;;;;;;;8.10;6.80;;;;;;;;;;4998350;28;20192;-76
2023/04/17 10:50:46;;;;;;;10.17;7.93;;;;;;;;;;5014334;28;20205;-75
2023/04/17 10:53:31;;;;;;;11.33;8.47;;;;;;;;;;5006077;28;20233;-75
2023/04/17 10:55:56;;;;;;;10.53;8.47;;;;;;;;;;5001214;28;20188;-76
2023/04/17 10:58:21;;;;;;;10.20;8.43;;;;;;;;;;4992169;28;20225;-76
2023/04/17 11:00:50;;;;;;;11.23;8.67;;;;;;;;;;4991465;28;20182;-75
2023/04/17 11:03:15;;;;;;;10.80;8.20;;;;;;;;;;5014697;28;20206;-75
2023/04/17 11:05:47;;;;;;;10.20;8.23;;;;;;;;;;4990217;28;20243;-75
2023/04/17 11:08:12;;;;;;;8.10;7.10;;;;;;;;;;4993593;28;20210;-76
2023/04/17 11:10:38;;;;;;;10.83;8.17;;;;;;;;;;4997291;28;20183;-76
2023/04/17 11:13:03;;;;;;;11.40;8.30;;;;;;;;;;4999050;28;20223;-76
2023/04/17 11:15:30;;;;;;;9.13;7.70;;;;;;;;;;5021502;28;20196;-76
2023/04/17 11:17:56;;;;;;;9.33;7.63;;;;;;;;;;5086998;27;20207;-76
2023/04/17 11:20:23;;;;;;;8.47;7.20;;;;;;;;;;5094537;28;20183;-76
2023/04/17 11:22:48;;;;;;;9.90;7.33;;;;;;;;;;5091626;27;20245;-76
2023/04/17 11:25:24;;;;;;;9.67;7.57;;;;;;;;;;5102463;28;20259;-76
2023/04/17 11:27:54;;;;;;;9.00;7.37;;;;;;;;;;5108282;27;20217;-76
2023/04/17 11:30:46;;;;;;;10.57;8.47;;;;;;;;;;5096122;27;20276;-76
2023/04/17 11:33:11;;;;;;;9.70;7.97;;;;;;;;;;5079062;28;20195;-76
2023/04/17 11:35:39;;;;;;;9.33;8.33;;;;;;;;;;5114183;27;20172;-76
2023/04/17 11:38:08;;;;;;;12.27;9.07;;;;;;;;;;5113346;27;20172;-75
2023/04/17 11:40:33;;;;;;;10.57;8.67;;;;;;;;;;5109254;27;20171;-76
2023/04/17 11:43:05;;;;;;;9.20;7.73;;;;;;;;;;5112283;27;20188;-76
2023/04/17 11:45:31;;;;;;;8.93;6.87;;;;;;;;;;5085449;28;20173;-76
2023/04/17 11:47:56;;;;;;;9.07;7.47;;;;;;;;;;5100691;27;20180;-76
2023/04/17 11:50:26;;;;;;;7.40;6.43;;;;;;;;;;5084442;28;20215;-76
2023/04/17 11:52:55;;;;;;;7.77;6.47;;;;;;;;;;5078450;28;20185;-76
2023/04/17 11:55:20;;;;;;;7.07;6.10;;;;;;;;;;5099529;28;20186;-76
2023/04/17 11:57:45;;;;;;;8.13;6.50;;;;;;;;;;5093572;28;20198;-76
2023/04/17 12:00:14;;;;;;;7.30;6.53;;;;;;;;;;5104894;27;20165;-75
2023/04/17 12:02:39;;;;;;;7.03;6.33;;;;;;;;;;5115710;27;20196;-76
2023/04/17 12:05:14;;;;;;;9.53;7.00;;;;;;;;;;5098147;28;20174;-76
2023/04/17 12:07:40;;;;;;;9.33;8.00;;;;;;;;;;5109769;28;20173;-76
2023/04/17 12:10:05;;;;;;;5.70;4.60;;;;;;;;;;5093671;28;20222;-76
2023/04/17 12:12:30;;;;;;;11.13;7.40;;;;;;;;;;5077968;28;20260;-76
2023/04/17 12:14:57;;;;;;;11.50;8.93;;;;;;;;;;5074708;28;20197;-76
2023/04/17 12:17:23;;;;;;;9.60;8.60;;;;;;;;;;5079913;28;20198;-76
2023/04/17 12:19:48;;;;;;;8.67;7.50;;;;;;;;;;5080341;28;20165;-77
2023/04/17 12:22:13;;;;;;;8.47;7.57;;;;;;;;;;5091433;28;20235;-76
2023/04/17 12:24:38;;;;;;;12.13;8.87;;;;;;;;;;5097039;28;20259;-76
2023/04/17 12:27:03;;;;;;;10.50;9.07;;;;;;;;;;5073400;28;20258;-76
2023/04/17 12:29:29;;;;;;;9.37;7.40;;;;;;;;;;5097461;28;20229;-76
2023/04/17 12:31:55;;;;;;;9.13;7.77;;;;;;;;;;5093143;28;20208;-76
2023/04/17 12:34:20;;;;;;;8.53;6.77;;;;;;;;;;5105262;28;20195;-76
2023/04/17 12:36:46;;;;;;;9.97;7.80;;;;;;;;;;5092940;28;20185;-76
2023/04/17 12:39:12;;;;;;;9.13;7.83;;;;;;;;;;5070847;28;20187;-76
2023/04/17 12:41:37;;;;;;;8.20;7.03;;;;;;;;;;5106563;28;20178;-76
2023/04/17 12:44:02;;;;;;;8.37;7.00;;;;;;;;;;5067169;28;20169;-76
2023/04/17 12:46:29;;;;;;;8.00;7.20;;;;;;;;;;5070220;28;20172;-76
2023/04/17 12:48:57;;;;;;;8.27;7.40;;;;;;;;;;5088450;28;20178;-76
2023/04/17 12:51:22;;;;;;;10.23;7.33;;;;;;;;;;5066707;28;20177;-76
2023/04/17 12:53:47;;;;;;;7.97;6.90;;;;;;;;;;5087670;28;20177;-76
2023/04/17 12:56:13;;;;;;;8.40;6.57;;;;;;;;;;5069556;28;20212;-76
2023/04/17 12:58:38;;;;;;;9.10;7.67;;;;;;;;;;5072768;28;20177;-76
2023/04/17 13:01:04;;;;;;;8.93;7.13;;;;;;;;;;5090928;28;20242;-76
2023/04/17 13:03:29;;;;;;;7.73;6.50;;;;;;;;;;5086269;28;20246;-76
2023/04/17 13:05:54;;;;;;;9.47;6.77;;;;;;;;;;5081818;28;20293;-76
2023/04/17 13:08:19;;;;;;;7.77;6.70;;;;;;;;;;5074001;28;20209;-76
2023/04/17 13:10:45;;;;;;;8.87;7.00;;;;;;;;;;5070867;28;20197;-76
2023/04/17 13:13:10;;;;;;;8.93;6.77;;;;;;;;;;5064123;28;20233;-76
2023/04/17 13:15:35;;;;;;;7.23;6.10;;;;;;;;;;5077969;28;20224;-76
2023/04/17 13:18:13;;;;;;;7.03;6.33;;;;;;;;;;5058686;28;20564;-74
2023/04/17 13:20:39;;;;;;;7.83;6.30;;;;;;;;;;5043702;28;20192;-74
2023/04/17 13:23:04;;;;;;;7.57;6.07;;;;;;;;;;5047284;28;20271;-74
2023/04/17 13:25:30;;;;;;;9.37;6.53;;;;;;;;;;5039043;28;20268;-74
2023/04/17 13:27:55;;;;;;;7.60;6.83;;;;;;;;;;5040834;28;20182;-75
2023/04/17 13:30:21;;;;;;;7.40;6.60;;;;;;;;;;5051788;28;20180;-74
2023/04/17 13:32:46;;;;;;;7.20;6.00;;;;;;;;;;5048110;28;20177;-74
2023/04/17 13:35:15;;;;;;;9.50;7.07;;;;;;;;;;5046934;28;20181;-75
2023/04/17 13:37:40;;;;;;;7.80;7.00;;;;;;;;;;5047364;28;20210;-75
2023/04/17 13:40:08;;;;;;;7.90;6.80;;;;;;;;;;5053240;28;20179;-75
2023/04/17 13:42:34;;;;;;;7.20;6.50;;;;;;;;;;5042341;28;20184;-74
2023/04/17 13:44:59;;;;;;;6.80;6.10;;;;;;;;;;5042768;28;20174;-77
2023/04/17 13:47:24;;;;;;;7.00;6.30;;;;;;;;;;5042748;28;20204;-77
2023/04/17 13:49:49;;;;;;;7.43;6.10;;;;;;;;;;5043808;28;20191;-77
2023/04/17 13:52:15;;;;;;;6.47;5.87;;;;;;;;;;5041483;28;20175;-77
2023/04/17 13:54:40;;;;;;;7.20;6.10;;;;;;;;;;5051852;28;20235;-77
2023/04/17 13:57:05;;;;;;;6.97;6.17;;;;;;;;;;5034116;28;20203;-77
2023/04/17 13:59:30;;;;;;;6.73;6.07;;;;;;;;;;5060818;28;20181;-77
2023/04/17 14:01:56;;;;;;;8.30;6.63;;;;;;;;;;5042424;28;20282;-77
2023/04/17 14:04:21;;;;;;;7.23;6.10;;;;;;;;;;5040670;28;20188;-77
2023/04/17 14:06:49;;;;;;;8.83;7.33;;;;;;;;;;5044680;28;20176;-77
2023/04/17 14:09:15;;;;;;;6.90;6.20;;;;;;;;;;5039721;28;20205;-77
2023/04/17 14:11:40;;;;;;;7.33;6.23;;;;;;;;;;5043995;28;20178;-77
2023/04/17 14:14:05;;;;;;;7.97;6.73;;;;;;;;;;5036081;28;20192;-77
2023/04/17 14:16:31;;;;;;;6.47;5.70;;;;;;;;;;5041563;28;20227;-77
2023/04/17 14:18:59;;;;;;;7.30;5.23;;;;;;;;;;5044563;28;20187;-77